Time;durP1;ratioP1;P1;durP2;ratioP2;P2;SDS_P1;SDS_P2;PMS_P1;PMS_P2;Temp;Humidity;BMP_temperature;BMP_pressure;BME280_temperature;BME280_humidity;BME280_pressure;Samples;Min_cycle;Max_cycle;Signal;HPM_P1;HPM_P2
2024/04/22 00:01:50;;;;;;;1.95;1.70;;;;;;;;;;5450875;26;20295;-37
2024/04/22 00:04:16;;;;;;;2.65;2.00;;;;;;;;;;5437370;26;20232;-37
2024/04/22 00:06:45;;;;;;;2.67;1.48;;;;;;;;;;5439481;26;20231;-37
2024/04/22 00:09:11;;;;;;;2.17;1.83;;;;;;;;;;5447195;26;20280;-37
2024/04/22 00:11:37;;;;;;;2.45;1.67;;;;;;;;;;5439972;26;20231;-38
2024/04/22 00:14:03;;;;;;;1.65;1.50;;;;;;;;;;5451365;26;20582;-38
2024/04/22 00:16:29;;;;;;;1.77;1.35;;;;;;;;;;5452647;26;20273;-38
2024/04/22 00:18:55;;;;;;;2.78;1.75;;;;;;;;;;5446212;26;20235;-38
2024/04/22 00:21:21;;;;;;;1.90;1.67;;;;;;;;;;5447928;26;20282;-38
2024/04/22 00:23:47;;;;;;;2.67;1.70;;;;;;;;;;5446580;26;20286;-38
2024/04/22 00:26:13;;;;;;;2.92;1.70;;;;;;;;;;5442452;26;20895;-37
2024/04/22 00:28:39;;;;;;;3.45;2.13;;;;;;;;;;5448377;26;20228;-37
2024/04/22 00:31:05;;;;;;;2.25;1.40;;;;;;;;;;5452213;26;20227;-37
2024/04/22 00:33:31;;;;;;;2.35;1.83;;;;;;;;;;5450452;26;20232;-37
2024/04/22 00:36:00;;;;;;;2.47;1.73;;;;;;;;;;5446354;26;20270;-38
2024/04/22 00:38:29;;;;;;;2.58;1.88;;;;;;;;;;5443901;26;20235;-38
2024/04/22 00:40:56;;;;;;;3.00;1.52;;;;;;;;;;5451744;26;20231;-37
2024/04/22 00:43:22;;;;;;;2.80;1.63;;;;;;;;;;5443616;26;20752;-37
2024/04/22 00:45:48;;;;;;;2.08;1.52;;;;;;;;;;5449261;26;20275;-38
2024/04/22 00:48:16;;;;;;;1.95;1.60;;;;;;;;;;5446641;26;20228;-38
2024/04/22 00:50:43;;;;;;;2.17;1.77;;;;;;;;;;5451661;26;20267;-38
2024/04/22 00:53:10;;;;;;;2.00;1.50;;;;;;;;;;5438820;26;20247;-38
2024/04/22 00:55:36;;;;;;;1.35;1.20;;;;;;;;;;5449728;26;20227;-37
2024/04/22 00:58:03;;;;;;;2.35;1.60;;;;;;;;;;5450636;26;20300;-37
2024/04/22 01:00:29;;;;;;;2.15;1.65;;;;;;;;;;5453944;26;20294;-38
2024/04/22 01:02:56;;;;;;;2.33;1.77;;;;;;;;;;5445877;26;20231;-37
2024/04/22 01:05:22;;;;;;;2.15;1.35;;;;;;;;;;5453914;26;20879;-37
2024/04/22 01:07:48;;;;;;;2.42;1.80;;;;;;;;;;5453162;26;20278;-38
2024/04/22 01:10:14;;;;;;;1.70;1.15;;;;;;;;;;5446459;26;20456;-38
2024/04/22 01:12:40;;;;;;;1.88;1.52;;;;;;;;;;5445600;26;20653;-37
2024/04/22 01:15:05;;;;;;;2.22;1.60;;;;;;;;;;5447538;26;20227;-38
2024/04/22 01:17:38;;;;;;;1.77;1.67;;;;;;;;;;5454619;26;20295;-38
2024/04/22 01:20:05;;;;;;;1.77;1.50;;;;;;;;;;5448808;26;20247;-38
2024/04/22 01:22:30;;;;;;;2.47;1.70;;;;;;;;;;5438530;26;20295;-38
2024/04/22 01:24:57;;;;;;;2.05;1.25;;;;;;;;;;5451534;26;20235;-38
2024/04/22 01:27:23;;;;;;;2.25;1.35;;;;;;;;;;5452816;26;20654;-38
2024/04/22 01:29:49;;;;;;;1.77;1.40;;;;;;;;;;5455651;26;20653;-38
2024/04/22 01:32:15;;;;;;;2.13;1.58;;;;;;;;;;5445454;26;20227;-38
2024/04/22 01:34:41;;;;;;;1.88;1.67;;;;;;;;;;5453533;26;20235;-37
2024/04/22 01:37:07;;;;;;;2.42;1.50;;;;;;;;;;5439874;26;20480;-37
2024/04/22 01:39:33;;;;;;;2.60;1.45;;;;;;;;;;5454627;26;20231;-38
2024/04/22 01:41:59;;;;;;;1.80;1.50;;;;;;;;;;5447668;26;20240;-38
2024/04/22 01:44:25;;;;;;;1.52;1.40;;;;;;;;;;5446878;26;20301;-38
2024/04/22 01:46:53;;;;;;;1.58;1.45;;;;;;;;;;5456772;26;20607;-38
2024/04/22 01:49:20;;;;;;;1.55;1.35;;;;;;;;;;5444938;26;20228;-37
2024/04/22 01:51:47;;;;;;;1.80;1.63;;;;;;;;;;5450936;26;20588;-38
2024/04/22 01:54:13;;;;;;;2.08;1.60;;;;;;;;;;5443485;26;20278;-37
2024/04/22 01:56:39;;;;;;;1.23;1.13;;;;;;;;;;5441946;26;20278;-37
2024/04/22 01:59:05;;;;;;;1.85;1.52;;;;;;;;;;5450053;26;20545;-37
2024/04/22 02:01:31;;;;;;;2.58;1.80;;;;;;;;;;5433959;26;20247;-38
2024/04/22 02:03:56;;;;;;;1.95;1.60;;;;;;;;;;5447090;26;20227;-37
2024/04/22 02:06:22;;;;;;;1.42;1.33;;;;;;;;;;5450474;26;20232;-38
2024/04/22 02:08:48;;;;;;;1.75;1.50;;;;;;;;;;5447235;26;20278;-38
2024/04/22 02:11:14;;;;;;;1.45;1.25;;;;;;;;;;5452054;26;20497;-38
2024/04/22 02:13:40;;;;;;;1.55;1.45;;;;;;;;;;5451558;26;20251;-38
2024/04/22 02:16:06;;;;;;;2.42;1.90;;;;;;;;;;5449074;26;20438;-38
2024/04/22 02:18:33;;;;;;;1.33;1.23;;;;;;;;;;5446301;26;20278;-38
2024/04/22 02:20:59;;;;;;;1.75;1.40;;;;;;;;;;5440455;26;20232;-38
2024/04/22 02:23:25;;;;;;;1.52;1.30;;;;;;;;;;5453757;26;20247;-37
2024/04/22 02:25:51;;;;;;;1.83;1.40;;;;;;;;;;5450199;26;20323;-37
2024/04/22 02:28:16;;;;;;;1.95;1.30;;;;;;;;;;5451950;26;20231;-37
2024/04/22 02:30:42;;;;;;;1.30;1.20;;;;;;;;;;5443175;26;20236;-37
2024/04/22 02:33:08;;;;;;;1.65;1.35;;;;;;;;;;5448906;26;20227;-37
2024/04/22 02:35:35;;;;;;;1.67;1.17;;;;;;;;;;5445736;26;20224;-38
2024/04/22 02:38:00;;;;;;;1.50;1.40;;;;;;;;;;5445847;26;20899;-38
2024/04/22 02:40:27;;;;;;;2.13;1.35;;;;;;;;;;5443695;26;20219;-37
2024/04/22 02:42:53;;;;;;;1.45;1.27;;;;;;;;;;5444582;26;20227;-38
2024/04/22 02:45:20;;;;;;;1.52;1.42;;;;;;;;;;5447592;26;20615;-38
2024/04/22 02:47:46;;;;;;;1.85;1.38;;;;;;;;;;5453954;26;20227;-38
2024/04/22 02:50:12;;;;;;;1.30;1.20;;;;;;;;;;5445240;26;20270;-37
2024/04/22 02:52:38;;;;;;;2.35;1.40;;;;;;;;;;5442965;26;20622;-37
2024/04/22 02:55:04;;;;;;;1.30;1.20;;;;;;;;;;5454076;26;20610;-38
2024/04/22 02:57:30;;;;;;;1.27;1.17;;;;;;;;;;5445385;26;20235;-37
2024/04/22 02:59:55;;;;;;;2.42;1.48;;;;;;;;;;5430862;26;20232;-37
2024/04/22 03:02:21;;;;;;;1.27;1.17;;;;;;;;;;5439740;26;20313;-38
2024/04/22 03:04:48;;;;;;;1.33;1.20;;;;;;;;;;5434699;26;20228;-37
2024/04/22 03:07:14;;;;;;;1.00;1.00;;;;;;;;;;5436595;26;20251;-38
2024/04/22 03:09:42;;;;;;;1.65;1.35;;;;;;;;;;5439165;26;20326;-37
2024/04/22 03:12:09;;;;;;;1.70;1.60;;;;;;;;;;5448365;26;20239;-37
2024/04/22 03:14:35;;;;;;;1.58;1.38;;;;;;;;;;5447076;26;20231;-37
2024/04/22 03:17:01;;;;;;;1.88;1.30;;;;;;;;;;5443265;26;20270;-37
2024/04/22 03:19:27;;;;;;;1.30;1.20;;;;;;;;;;5439282;26;20227;-38
2024/04/22 03:21:53;;;;;;;2.13;1.50;;;;;;;;;;5449679;26;20239;-38
2024/04/22 03:24:19;;;;;;;1.30;1.20;;;;;;;;;;5442200;26;20283;-38
2024/04/22 03:26:45;;;;;;;1.48;1.38;;;;;;;;;;5445631;26;20270;-38
2024/04/22 03:29:11;;;;;;;1.30;1.20;;;;;;;;;;5449761;26;20552;-35
2024/04/22 03:31:37;;;;;;;3.83;1.40;;;;;;;;;;5443778;26;20284;-35
2024/04/22 03:34:02;;;;;;;3.45;1.30;;;;;;;;;;5436113;26;20321;-35
2024/04/22 03:36:28;;;;;;;2.40;1.45;;;;;;;;;;5442078;26;20333;-44
2024/04/22 03:38:54;;;;;;;2.08;1.30;;;;;;;;;;5432140;26;20231;-36
2024/04/22 03:41:20;;;;;;;2.17;1.42;;;;;;;;;;5445505;26;20279;-33
2024/04/22 03:43:46;;;;;;;1.83;1.20;;;;;;;;;;5426032;26;20258;-34
2024/04/22 03:51:42;;;;;;;3.90;1.58;;;;;;;;;;5451816;26;20266;-35
2024/04/22 03:54:08;;;;;;;6.28;1.52;;;;;;;;;;5437931;26;20302;-36
2024/04/22 03:56:34;;;;;;;4.80;1.90;;;;;;;;;;5439345;26;20493;-36
2024/04/22 03:59:00;;;;;;;3.63;1.60;;;;;;;;;;5447638;26;20277;-37
2024/04/22 04:01:26;;;;;;;4.85;1.27;;;;;;;;;;5444954;26;20231;-37
2024/04/22 04:03:51;;;;;;;4.47;1.83;;;;;;;;;;5443346;26;20232;-37
2024/04/22 04:06:17;;;;;;;3.63;1.60;;;;;;;;;;5444009;26;20302;-37
2024/04/22 04:08:46;;;;;;;2.63;1.45;;;;;;;;;;5443002;26;20231;-37
2024/04/22 04:11:12;;;;;;;5.20;1.67;;;;;;;;;;5427739;26;20232;-37
2024/04/22 04:13:41;;;;;;;2.17;1.25;;;;;;;;;;5453502;26;20223;-37
2024/04/22 04:16:10;;;;;;;3.35;1.50;;;;;;;;;;5447754;26;20258;-37
2024/04/22 04:18:36;;;;;;;2.17;1.58;;;;;;;;;;5444199;26;20223;-37
2024/04/22 04:21:02;;;;;;;3.38;1.88;;;;;;;;;;5445100;26;20397;-37
2024/04/22 04:23:28;;;;;;;5.90;1.52;;;;;;;;;;5441478;26;20279;-37
2024/04/22 04:25:54;;;;;;;1.85;1.52;;;;;;;;;;5443420;26;20303;-37
2024/04/22 04:28:20;;;;;;;7.30;2.00;;;;;;;;;;5454178;26;20223;-38
2024/04/22 04:30:56;;;;;;;9.98;2.10;;;;;;;;;;5449715;26;20235;-35
2024/04/22 04:33:22;;;;;;;16.65;4.18;;;;;;;;;;5443324;26;20623;-46
2024/04/22 04:36:00;;;;;;;14.75;3.60;;;;;;;;;;5451896;26;20266;-36
2024/04/22 04:38:26;;;;;;;22.15;3.47;;;;;;;;;;5443763;26;20236;-37
2024/04/22 04:40:52;;;;;;;9.60;3.17;;;;;;;;;;5450903;26;20788;-36
2024/04/22 04:43:18;;;;;;;9.95;2.60;;;;;;;;;;5451141;26;20228;-39
2024/04/22 04:45:44;;;;;;;8.50;2.58;;;;;;;;;;5455122;26;20324;-36
2024/04/22 04:48:10;;;;;;;13.70;2.65;;;;;;;;;;5454171;26;20232;-36
2024/04/22 04:50:36;;;;;;;7.43;2.40;;;;;;;;;;5454669;26;20630;-37
2024/04/22 04:53:02;;;;;;;10.55;2.55;;;;;;;;;;5452063;26;20702;-41
2024/04/22 04:55:28;;;;;;;14.40;2.70;;;;;;;;;;5454929;26;20282;-42
2024/04/22 04:57:54;;;;;;;8.38;2.40;;;;;;;;;;5450195;26;20287;-43
2024/04/22 05:00:20;;;;;;;5.50;2.40;;;;;;;;;;5454175;26;20239;-35
2024/04/22 05:02:46;;;;;;;6.13;2.03;;;;;;;;;;5447485;26;20308;-45
2024/04/22 05:05:12;;;;;;;10.18;2.40;;;;;;;;;;5450415;26;20231;-37
2024/04/22 05:07:38;;;;;;;6.95;1.98;;;;;;;;;;5444564;26;20236;-36
2024/04/22 05:10:04;;;;;;;6.50;2.15;;;;;;;;;;5452285;26;20266;-36
2024/04/22 05:12:30;;;;;;;8.82;2.42;;;;;;;;;;5440700;26;20243;-51
2024/04/22 05:14:56;;;;;;;3.72;2.13;;;;;;;;;;5443669;26;20249;-53
2024/04/22 05:17:22;;;;;;;3.72;2.00;;;;;;;;;;5443071;26;20287;-53
2024/04/22 05:19:48;;;;;;;6.90;2.10;;;;;;;;;;5454113;26;20274;-36
2024/04/22 05:22:14;;;;;;;4.65;2.17;;;;;;;;;;5451213;26;20290;-41
2024/04/22 05:24:39;;;;;;;6.22;2.60;;;;;;;;;;5440905;26;20231;-39
2024/04/22 05:27:05;;;;;;;4.45;2.50;;;;;;;;;;5447958;26;20235;-41
2024/04/22 05:29:32;;;;;;;6.68;2.47;;;;;;;;;;5449989;26;20232;-36
2024/04/22 05:31:58;;;;;;;5.68;2.25;;;;;;;;;;5452929;26;20228;-40
2024/04/22 05:37:09;;;;;;;6.72;2.25;;;;;;;;;;5437540;26;20282;-37
2024/04/22 05:39:35;;;;;;;4.38;2.15;;;;;;;;;;5452767;26;20835;-41
2024/04/22 05:42:01;;;;;;;5.53;2.13;;;;;;;;;;5430104;26;20583;-41
2024/04/22 05:44:27;;;;;;;6.25;2.67;;;;;;;;;;5442796;26;20295;-42
2024/04/22 05:46:52;;;;;;;7.45;2.20;;;;;;;;;;5447028;26;20232;-42
2024/04/22 05:49:18;;;;;;;8.35;1.77;;;;;;;;;;5445023;26;23663;-41
2024/04/22 05:51:44;;;;;;;7.00;2.63;;;;;;;;;;5441019;26;20857;-45
2024/04/22 05:54:10;;;;;;;2.63;1.80;;;;;;;;;;5429635;26;20278;-40
2024/04/22 05:56:36;;;;;;;8.30;2.15;;;;;;;;;;5453445;26;20737;-39
2024/04/22 05:59:03;;;;;;;12.95;2.70;;;;;;;;;;5445084;26;20512;-40
2024/04/22 06:01:28;;;;;;;8.35;3.10;;;;;;;;;;5449319;26;20274;-40
2024/04/22 06:03:54;;;;;;;9.20;2.30;;;;;;;;;;5434487;26;20471;-40
2024/04/22 06:06:20;;;;;;;5.85;2.45;;;;;;;;;;5446535;26;20499;-39
2024/04/22 06:08:47;;;;;;;12.43;2.47;;;;;;;;;;5438948;26;20300;-40
2024/04/22 06:11:13;;;;;;;5.93;2.40;;;;;;;;;;5447486;26;20235;-39
2024/04/22 06:13:39;;;;;;;6.35;2.10;;;;;;;;;;5453248;26;20493;-40
2024/04/22 06:16:06;;;;;;;13.63;2.17;;;;;;;;;;5451014;26;20231;-40
2024/04/22 06:18:31;;;;;;;4.43;1.90;;;;;;;;;;5440931;26;20223;-40
2024/04/22 06:20:57;;;;;;;6.68;2.25;;;;;;;;;;5445850;26;20228;-40
2024/04/22 06:23:23;;;;;;;6.97;1.98;;;;;;;;;;5435280;26;20340;-40
2024/04/22 06:25:49;;;;;;;7.95;2.38;;;;;;;;;;5456035;26;20223;-39
2024/04/22 06:28:15;;;;;;;6.38;2.17;;;;;;;;;;5439907;26;20494;-39
2024/04/22 06:30:41;;;;;;;1.95;1.52;;;;;;;;;;5445249;26;20663;-40
2024/04/22 06:33:07;;;;;;;3.22;1.77;;;;;;;;;;5444163;26;20239;-40
2024/04/22 06:35:33;;;;;;;2.70;1.95;;;;;;;;;;5448685;26;20224;-39
2024/04/22 06:37:59;;;;;;;3.35;1.80;;;;;;;;;;5436109;26;20268;-40
2024/04/22 06:40:25;;;;;;;3.88;1.70;;;;;;;;;;5449184;26;20274;-40
2024/04/22 06:42:51;;;;;;;3.65;1.70;;;;;;;;;;5441235;26;20232;-40
2024/04/22 06:45:17;;;;;;;2.30;1.73;;;;;;;;;;5438786;26;20240;-40
2024/04/22 06:47:42;;;;;;;4.05;1.80;;;;;;;;;;5441685;26;20515;-40
2024/04/22 06:50:08;;;;;;;6.28;2.03;;;;;;;;;;5448004;26;20763;-40
2024/04/22 06:52:34;;;;;;;3.03;1.70;;;;;;;;;;5438307;26;20241;-40
2024/04/22 06:55:00;;;;;;;4.20;1.65;;;;;;;;;;5453325;26;20238;-40
2024/04/22 06:57:26;;;;;;;2.78;1.80;;;;;;;;;;5450334;26;20240;-39
2024/04/22 06:59:52;;;;;;;4.18;1.90;;;;;;;;;;5449760;26;20231;-40
2024/04/22 07:02:18;;;;;;;1.85;1.60;;;;;;;;;;5443783;26;20325;-39
2024/04/22 07:04:44;;;;;;;3.00;1.80;;;;;;;;;;5442905;26;20232;-39
2024/04/22 07:07:10;;;;;;;3.50;1.67;;;;;;;;;;5435795;26;20641;-40
2024/04/22 07:09:36;;;;;;;2.45;1.63;;;;;;;;;;5452204;26;20290;-40
2024/04/22 07:12:01;;;;;;;2.15;1.75;;;;;;;;;;5444181;26;20691;-40
2024/04/22 07:14:27;;;;;;;3.13;1.70;;;;;;;;;;5449954;26;20261;-40
2024/04/22 07:16:54;;;;;;;3.80;1.67;;;;;;;;;;5438614;26;20696;-39
2024/04/22 07:19:20;;;;;;;2.97;1.65;;;;;;;;;;5447562;26;20270;-40
2024/04/22 07:21:46;;;;;;;1.85;1.50;;;;;;;;;;5453138;26;20282;-40
2024/04/22 07:24:12;;;;;;;3.08;1.85;;;;;;;;;;5443997;26;20277;-40
2024/04/22 07:26:38;;;;;;;2.53;1.55;;;;;;;;;;5439088;26;21831;-40
2024/04/22 07:29:04;;;;;;;3.28;1.45;;;;;;;;;;5450462;26;20239;-40
2024/04/22 07:31:30;;;;;;;4.53;1.73;;;;;;;;;;5445385;26;20231;-40
2024/04/22 07:33:56;;;;;;;1.42;1.33;;;;;;;;;;5449701;26;20444;-40
2024/04/22 07:36:29;;;;;;;3.10;1.65;;;;;;;;;;5441624;26;20325;-40
2024/04/22 07:38:58;;;;;;;1.35;1.25;;;;;;;;;;5450748;26;20274;-40
2024/04/22 07:41:24;;;;;;;6.40;2.38;;;;;;;;;;5441116;26;20328;-40
2024/04/22 07:43:49;;;;;;;2.63;1.58;;;;;;;;;;5438742;26;20606;-39
2024/04/22 07:46:15;;;;;;;1.52;1.42;;;;;;;;;;5450423;26;20227;-40
2024/04/22 07:48:41;;;;;;;4.07;1.48;;;;;;;;;;5452186;26;20266;-40
2024/04/22 07:51:07;;;;;;;1.95;1.35;;;;;;;;;;5451928;26;20235;-40
2024/04/22 07:53:33;;;;;;;2.78;1.38;;;;;;;;;;5445432;26;20636;-40
2024/04/22 07:55:59;;;;;;;1.85;1.75;;;;;;;;;;5452198;26;20284;-40
2024/04/22 07:58:25;;;;;;;2.03;1.30;;;;;;;;;;5438867;26;20960;-40
2024/04/22 08:00:51;;;;;;;2.22;1.60;;;;;;;;;;5451047;26;20231;-40
2024/04/22 08:03:17;;;;;;;3.03;1.52;;;;;;;;;;5450194;26;20235;-40
2024/04/22 08:05:43;;;;;;;2.33;1.30;;;;;;;;;;5451504;26;20322;-39
2024/04/22 08:08:09;;;;;;;2.80;1.88;;;;;;;;;;5444126;26;20232;-39
2024/04/22 08:10:35;;;;;;;1.35;1.25;;;;;;;;;;5453999;26;20312;-40
2024/04/22 08:13:01;;;;;;;1.45;1.35;;;;;;;;;;5437361;26;20299;-40
2024/04/22 08:15:27;;;;;;;1.55;1.42;;;;;;;;;;5446324;26;20316;-40
2024/04/22 08:17:53;;;;;;;1.67;1.33;;;;;;;;;;5450737;26;20517;-40
2024/04/22 08:20:19;;;;;;;2.30;1.30;;;;;;;;;;5455967;26;20231;-40
2024/04/22 08:22:45;;;;;;;3.53;1.50;;;;;;;;;;5453137;26;20231;-40
2024/04/22 08:25:11;;;;;;;1.70;1.38;;;;;;;;;;5447445;26;20621;-40
2024/04/22 08:27:37;;;;;;;1.58;1.48;;;;;;;;;;5454954;26;20279;-40
2024/04/22 08:30:03;;;;;;;2.03;1.33;;;;;;;;;;5448823;26;20242;-40
2024/04/22 08:32:29;;;;;;;2.72;1.40;;;;;;;;;;5440638;26;20274;-40
2024/04/22 08:34:55;;;;;;;1.40;1.30;;;;;;;;;;5444267;26;20501;-40
2024/04/22 08:37:21;;;;;;;1.30;1.20;;;;;;;;;;5432474;26;20237;-40
2024/04/22 08:39:47;;;;;;;1.55;1.25;;;;;;;;;;5446969;26;20261;-40
2024/04/22 08:42:13;;;;;;;2.10;1.38;;;;;;;;;;5456199;26;20239;-40
2024/04/22 08:44:40;;;;;;;1.48;1.38;;;;;;;;;;5451534;26;20620;-40
2024/04/22 08:47:07;;;;;;;1.42;1.33;;;;;;;;;;5456660;26;20235;-40
2024/04/22 08:49:33;;;;;;;1.88;1.42;;;;;;;;;;5443264;26;20278;-40
2024/04/22 08:51:59;;;;;;;1.77;1.10;;;;;;;;;;5441984;26;20223;-40
2024/04/22 08:54:25;;;;;;;2.17;1.80;;;;;;;;;;5438762;26;20300;-40
2024/04/22 08:56:54;;;;;;;1.63;1.50;;;;;;;;;;5435680;26;20232;-40
2024/04/22 08:59:19;;;;;;;1.67;1.30;;;;;;;;;;5444932;26;20281;-40
2024/04/22 09:01:45;;;;;;;1.75;1.33;;;;;;;;;;5454220;26;20231;-39
2024/04/22 09:04:11;;;;;;;1.63;1.10;;;;;;;;;;5450440;26;20283;-39
2024/04/22 09:06:37;;;;;;;1.27;1.17;;;;;;;;;;5448244;26;20282;-39
2024/04/22 09:09:08;;;;;;;1.38;1.17;;;;;;;;;;5443344;26;20306;-39
2024/04/22 09:11:34;;;;;;;1.30;1.20;;;;;;;;;;5448027;26;20310;-40
2024/04/22 09:14:01;;;;;;;2.63;1.58;;;;;;;;;;5446072;26;20566;-40
2024/04/22 09:16:27;;;;;;;1.33;1.23;;;;;;;;;;5442915;26;20282;-40
2024/04/22 09:18:54;;;;;;;1.60;1.50;;;;;;;;;;5447819;26;20224;-40
2024/04/22 09:21:20;;;;;;;1.48;1.38;;;;;;;;;;5438274;26;20243;-40
2024/04/22 09:23:46;;;;;;;1.30;1.15;;;;;;;;;;5439262;26;20229;-40
2024/04/22 09:26:13;;;;;;;1.60;1.30;;;;;;;;;;5448771;26;20274;-40
2024/04/22 09:28:39;;;;;;;1.65;1.48;;;;;;;;;;5429958;26;20594;-40
2024/04/22 09:31:05;;;;;;;1.92;1.30;;;;;;;;;;5444160;26;20227;-40
2024/04/22 09:33:35;;;;;;;1.52;1.42;;;;;;;;;;5441700;26;20290;-40
2024/04/22 09:36:03;;;;;;;1.50;1.40;;;;;;;;;;5442917;26;20231;-40
2024/04/22 09:38:32;;;;;;;1.40;1.30;;;;;;;;;;5437252;26;20228;-40
2024/04/22 09:40:59;;;;;;;1.65;1.40;;;;;;;;;;5433378;26;20232;-39
2024/04/22 09:43:24;;;;;;;1.52;1.27;;;;;;;;;;5452012;26;20223;-39
2024/04/22 09:45:51;;;;;;;1.58;1.42;;;;;;;;;;5449034;26;20282;-39
2024/04/22 09:48:18;;;;;;;1.80;1.30;;;;;;;;;;5443771;26;20225;-39
2024/04/22 09:50:45;;;;;;;1.52;1.35;;;;;;;;;;5452614;26;20232;-40
2024/04/22 09:53:13;;;;;;;1.25;1.15;;;;;;;;;;5442766;26;20236;-40
2024/04/22 09:55:39;;;;;;;1.38;1.27;;;;;;;;;;5430602;26;20279;-40
2024/04/22 09:58:09;;;;;;;1.48;1.27;;;;;;;;;;5450040;26;20220;-39
2024/04/22 10:00:35;;;;;;;1.30;1.20;;;;;;;;;;5447974;26;20915;-39
2024/04/22 10:03:01;;;;;;;1.23;1.23;;;;;;;;;;5444032;26;20484;-40
2024/04/22 10:05:27;;;;;;;1.65;1.15;;;;;;;;;;5445974;26;20235;-40
2024/04/22 10:07:53;;;;;;;1.45;1.35;;;;;;;;;;5442813;26;20236;-39
2024/04/22 10:10:19;;;;;;;1.35;1.10;;;;;;;;;;5452454;26;20312;-40
2024/04/22 10:12:45;;;;;;;1.10;1.00;;;;;;;;;;5435390;26;20332;-40
2024/04/22 10:15:11;;;;;;;1.40;1.30;;;;;;;;;;5436771;26;20475;-40
2024/04/22 10:17:37;;;;;;;1.50;1.40;;;;;;;;;;5441356;26;20235;-40
2024/04/22 10:20:03;;;;;;;1.63;1.33;;;;;;;;;;5454352;26;20239;-40
2024/04/22 10:22:32;;;;;;;1.30;1.20;;;;;;;;;;5448288;26;20247;-40
2024/04/22 10:24:59;;;;;;;1.17;1.08;;;;;;;;;;5440532;26;20270;-40
2024/04/22 10:27:25;;;;;;;1.40;1.10;;;;;;;;;;5450231;26;20243;-39
2024/04/22 10:29:51;;;;;;;1.15;1.05;;;;;;;;;;5450583;26;20286;-40
2024/04/22 10:32:17;;;;;;;1.30;1.20;;;;;;;;;;5452506;26;20231;-40
2024/04/22 10:34:43;;;;;;;1.25;1.00;;;;;;;;;;5451606;26;20329;-39
2024/04/22 10:37:10;;;;;;;1.35;1.25;;;;;;;;;;5435654;26;20295;-40
2024/04/22 10:39:36;;;;;;;1.52;1.42;;;;;;;;;;5446542;26;20521;-40
2024/04/22 10:42:02;;;;;;;0.98;0.90;;;;;;;;;;5443716;26;20321;-40
2024/04/22 10:44:28;;;;;;;1.20;1.10;;;;;;;;;;5436585;26;20264;-40
2024/04/22 10:46:54;;;;;;;1.30;1.10;;;;;;;;;;5436021;26;20316;-40
2024/04/22 10:49:20;;;;;;;1.27;1.17;;;;;;;;;;5453458;26;20223;-40
2024/04/22 10:51:46;;;;;;;1.58;1.48;;;;;;;;;;5455393;26;20295;-40
2024/04/22 10:54:13;;;;;;;1.42;1.33;;;;;;;;;;5452248;26;20236;-39
2024/04/22 10:56:39;;;;;;;1.05;1.00;;;;;;;;;;5453211;26;20227;-39
2024/04/22 10:59:06;;;;;;;1.35;1.20;;;;;;;;;;5450110;26;20309;-39
2024/04/22 11:01:32;;;;;;;1.00;1.00;;;;;;;;;;5447813;26;20446;-39
2024/04/22 11:03:58;;;;;;;2.33;1.23;;;;;;;;;;5438812;26;20272;-39
2024/04/22 11:06:24;;;;;;;1.20;1.10;;;;;;;;;;5448400;26;20304;-39
2024/04/22 11:08:50;;;;;;;1.20;1.10;;;;;;;;;;5453391;26;20668;-39
2024/04/22 11:11:17;;;;;;;1.10;1.00;;;;;;;;;;5452254;26;20602;-40
2024/04/22 11:13:43;;;;;;;0.90;0.90;;;;;;;;;;5436964;26;20311;-40
2024/04/22 11:16:09;;;;;;;1.63;1.08;;;;;;;;;;5443023;26;20838;-40
2024/04/22 11:18:36;;;;;;;1.83;1.00;;;;;;;;;;5436718;26;20928;-40
2024/04/22 11:21:02;;;;;;;0.90;0.90;;;;;;;;;;5442467;26;20610;-39
2024/04/22 11:23:28;;;;;;;1.42;1.30;;;;;;;;;;5432122;26;20279;-40
2024/04/22 11:25:54;;;;;;;0.90;0.90;;;;;;;;;;5446138;26;20231;-40
2024/04/22 11:28:20;;;;;;;1.63;1.23;;;;;;;;;;5446678;26;20473;-40
2024/04/22 11:30:49;;;;;;;1.05;0.95;;;;;;;;;;5447867;26;20224;-40
2024/04/22 11:33:15;;;;;;;1.17;1.08;;;;;;;;;;5442648;26;20252;-40
2024/04/22 11:35:41;;;;;;;1.70;1.30;;;;;;;;;;5446645;26;20236;-40
2024/04/22 11:38:15;;;;;;;2.72;1.10;;;;;;;;;;5432488;26;20947;-41
2024/04/22 11:40:42;;;;;;;1.42;1.02;;;;;;;;;;5444502;26;20279;-39
2024/04/22 11:43:08;;;;;;;2.08;1.17;;;;;;;;;;5435145;26;20627;-39
2024/04/22 11:45:34;;;;;;;1.00;1.00;;;;;;;;;;5445217;26;20281;-40
2024/04/22 11:48:00;;;;;;;1.65;1.23;;;;;;;;;;5441691;26;20239;-40
2024/04/22 11:50:26;;;;;;;2.25;1.13;;;;;;;;;;5446997;26;20235;-40
2024/04/22 11:52:52;;;;;;;1.77;1.30;;;;;;;;;;5446275;26;20235;-40
2024/04/22 11:55:18;;;;;;;5.07;1.23;;;;;;;;;;5438490;26;20260;-40
2024/04/22 11:57:44;;;;;;;3.08;1.10;;;;;;;;;;5444709;26;20600;-40
2024/04/22 12:00:10;;;;;;;1.52;1.15;;;;;;;;;;5447357;26;20277;-40
2024/04/22 12:02:36;;;;;;;2.03;1.00;;;;;;;;;;5428698;26;20232;-40
2024/04/22 12:05:06;;;;;;;1.30;1.20;;;;;;;;;;5453843;26;20274;-39
2024/04/22 12:07:32;;;;;;;1.38;1.27;;;;;;;;;;5448405;26;20615;-40
2024/04/22 12:09:57;;;;;;;1.13;1.00;;;;;;;;;;5447719;26;20301;-40
2024/04/22 12:12:23;;;;;;;1.45;1.10;;;;;;;;;;5446246;26;20985;-40
2024/04/22 12:14:49;;;;;;;2.78;1.63;;;;;;;;;;5438096;26;20236;-40
2024/04/22 12:17:16;;;;;;;1.25;1.15;;;;;;;;;;5448698;26;20468;-39
2024/04/22 12:19:42;;;;;;;1.05;1.05;;;;;;;;;;5441833;26;20322;-39
2024/04/22 12:22:08;;;;;;;1.42;1.17;;;;;;;;;;5445645;26;20239;-39
2024/04/22 12:24:34;;;;;;;1.55;1.02;;;;;;;;;;5426953;26;20342;-40
2024/04/22 12:27:00;;;;;;;3.08;1.10;;;;;;;;;;5442267;26;20490;-40
2024/04/22 12:29:26;;;;;;;2.60;1.10;;;;;;;;;;5445780;26;20246;-41
2024/04/22 12:31:52;;;;;;;1.08;0.98;;;;;;;;;;5438941;26;20295;-40
2024/04/22 12:34:18;;;;;;;1.23;1.10;;;;;;;;;;5444371;26;20219;-39
2024/04/22 12:36:43;;;;;;;1.38;1.27;;;;;;;;;;5439586;26;20321;-39
2024/04/22 12:39:09;;;;;;;1.58;1.33;;;;;;;;;;5450398;26;20520;-40
2024/04/22 12:41:36;;;;;;;1.38;1.20;;;;;;;;;;5449862;26;20618;-40
2024/04/22 12:44:02;;;;;;;0.90;0.90;;;;;;;;;;5433650;26;20240;-40
2024/04/22 12:46:28;;;;;;;1.25;1.10;;;;;;;;;;5440848;26;20279;-40
2024/04/22 12:51:38;;;;;;;2.13;1.20;;;;;;;;;;5444035;26;20269;-40
2024/04/22 12:54:04;;;;;;;2.00;1.10;;;;;;;;;;5433525;26;20576;-40
2024/04/22 12:56:30;;;;;;;1.35;1.10;;;;;;;;;;5456411;26;20602;-40
2024/04/22 12:58:57;;;;;;;1.30;1.10;;;;;;;;;;5446112;26;20286;-40
2024/04/22 13:01:23;;;;;;;0.82;0.80;;;;;;;;;;5455398;26;20637;-40
2024/04/22 13:03:49;;;;;;;1.80;1.10;;;;;;;;;;5445641;26;20231;-39
2024/04/22 13:06:15;;;;;;;2.22;0.90;;;;;;;;;;5456099;26;20224;-40
2024/04/22 13:08:41;;;;;;;1.08;1.00;;;;;;;;;;5437307;26;20689;-40
2024/04/22 13:11:07;;;;;;;0.95;0.90;;;;;;;;;;5449854;26;20286;-39
2024/04/22 13:13:33;;;;;;;0.88;0.85;;;;;;;;;;5449405;26;20273;-39
2024/04/22 13:15:59;;;;;;;1.23;1.00;;;;;;;;;;5432706;26;20275;-40
2024/04/22 13:18:24;;;;;;;1.10;1.10;;;;;;;;;;5444134;26;20227;-40
2024/04/22 13:20:50;;;;;;;1.58;1.20;;;;;;;;;;5435430;26;20286;-40
2024/04/22 13:23:16;;;;;;;1.25;1.15;;;;;;;;;;5443141;26;20232;-40
2024/04/22 13:25:43;;;;;;;2.05;1.27;;;;;;;;;;5444371;26;20309;-40
2024/04/22 13:28:09;;;;;;;0.90;0.90;;;;;;;;;;5451927;26;20243;-40
2024/04/22 13:30:36;;;;;;;1.00;1.00;;;;;;;;;;5446370;26;20235;-40
2024/04/22 13:33:02;;;;;;;1.10;1.00;;;;;;;;;;5444702;26;20282;-40
2024/04/22 13:35:28;;;;;;;1.48;1.08;;;;;;;;;;5455469;26;20267;-39
2024/04/22 13:37:54;;;;;;;2.45;1.15;;;;;;;;;;5441884;26;20286;-39
2024/04/22 13:40:20;;;;;;;3.17;1.00;;;;;;;;;;5451589;26;20236;-40
2024/04/22 13:42:46;;;;;;;1.10;1.00;;;;;;;;;;5432483;26;20236;-40
2024/04/22 13:45:12;;;;;;;3.47;1.00;;;;;;;;;;5443075;26;20235;-40
2024/04/22 13:47:37;;;;;;;2.50;1.13;;;;;;;;;;5450348;26;20235;-40
2024/04/22 13:50:03;;;;;;;1.23;1.00;;;;;;;;;;5446572;26;20467;-40
2024/04/22 13:52:29;;;;;;;3.15;1.10;;;;;;;;;;5455302;26;20223;-40
2024/04/22 13:54:55;;;;;;;0.93;0.93;;;;;;;;;;5446294;26;20282;-40
2024/04/22 13:57:21;;;;;;;3.13;1.30;;;;;;;;;;5453899;26;20269;-40
2024/04/22 13:59:47;;;;;;;3.83;1.20;;;;;;;;;;5451033;26;20239;-39
2024/04/22 14:02:13;;;;;;;1.35;1.10;;;;;;;;;;5448364;26;20228;-40
2024/04/22 14:04:39;;;;;;;1.48;0.80;;;;;;;;;;5441945;26;20241;-40
2024/04/22 14:07:05;;;;;;;1.90;0.98;;;;;;;;;;5442003;26;20273;-40
2024/04/22 14:09:31;;;;;;;1.27;1.05;;;;;;;;;;5440437;26;20307;-39
2024/04/22 14:11:57;;;;;;;3.60;1.00;;;;;;;;;;5440490;26;20503;-40
2024/04/22 14:14:23;;;;;;;4.28;1.25;;;;;;;;;;5443527;26;20309;-40
2024/04/22 14:16:49;;;;;;;2.63;1.20;;;;;;;;;;5452110;26;20266;-40
2024/04/22 14:19:15;;;;;;;1.35;1.15;;;;;;;;;;5431667;26;20236;-40
2024/04/22 14:21:41;;;;;;;1.25;1.15;;;;;;;;;;5448932;26;20340;-39
2024/04/22 14:24:07;;;;;;;2.10;1.17;;;;;;;;;;5448088;26;20316;-40
2024/04/22 14:26:33;;;;;;;2.38;1.30;;;;;;;;;;5454467;26;20606;-40
2024/04/22 14:28:59;;;;;;;1.73;1.13;;;;;;;;;;5446307;26;20236;-40
2024/04/22 14:31:25;;;;;;;1.58;1.48;;;;;;;;;;5452709;26;20236;-40
2024/04/22 14:33:52;;;;;;;3.85;1.52;;;;;;;;;;5451659;26;20227;-40
2024/04/22 14:36:18;;;;;;;2.67;1.90;;;;;;;;;;5438733;26;20673;-40
2024/04/22 14:38:44;;;;;;;4.10;1.92;;;;;;;;;;5452663;26;20223;-40
2024/04/22 14:41:09;;;;;;;2.80;1.67;;;;;;;;;;5435823;26;20939;-40
2024/04/22 14:43:35;;;;;;;1.95;1.52;;;;;;;;;;5447264;26;20274;-40
2024/04/22 14:46:02;;;;;;;4.88;2.20;;;;;;;;;;5447493;26;20454;-40
2024/04/22 14:48:28;;;;;;;3.88;1.77;;;;;;;;;;5439841;26;20472;-40